Terminal Aerodrome Forecast
Issued by NWS

Home | Current Version | Previous Version | Text Only | Print | Product List | Glossary On
Versions: 1 2 3 4 5 6 7 8 9 10 11 12 13 14 15 16
000
FTAK31 PAJN 231302 AAA
TAFAYA
TAF AMD
PAYA 231302Z 2313/2412 08007KT 6SM -RA SCT006 OVC012
      TEMPO 2313/2316 3SM -RASN BR OVC006
     FM231600 12010KT 5SM -RA BKN015 OVC025
     FM232100 17004KT 5SM -SHSN BKN025 OVC035
     FM240600 08006KT 2SM -SN BKN015 OVC025
      AMD LTD TO CLD VIS AND WIND 2401/2409=

USA.gov is the U.S. government's official web portal to all federal, state and local government web resources and services.